Time;durP1;ratioP1;P1;durP2;ratioP2;P2;SDS_P1;SDS_P2;PMS_P1;PMS_P2;Temp;Humidity;BMP_temperature;BMP_pressure;BME280_temperature;BME280_humidity;BME280_pressure;Samples;Min_cycle;Max_cycle;Signal;HPM_P1;HPM_P2
2021/09/18 00:00:12;;;;;;;;;;;;;;;;;;5071766;28;19924;-63
2021/09/18 00:02:39;;;;;;;;;;;;;;;;;;5072233;28;19950;-66
2021/09/18 00:05:06;;;;;;;;;;;;;;;;;;5071977;28;19928;-63
2021/09/18 00:07:33;;;;;;;;;;;;;;;;;;5072312;28;20395;-66
2021/09/18 00:09:59;;;;;;;;;;;;;;;;;;5071828;28;19967;-63
2021/09/18 00:12:27;;;;;;;;;;;;;;;;;;5072271;28;20044;-66
2021/09/18 00:14:55;;;;;;;;;;;;;;;;;;5072079;28;19924;-64
2021/09/18 00:17:22;;;;;;;;;;;;;;;;;;5072486;28;19930;-63
2021/09/18 00:19:49;;;;;;;;;;;;;;;;;;5071794;28;19924;-64
2021/09/18 00:22:16;;;;;;;;;;;;;;;;;;5071935;28;19946;-63
2021/09/18 00:24:43;;;;;;;;;;;;;;;;;;5072395;28;19967;-63
2021/09/18 00:27:10;;;;;;;;;;;;;;;;;;5073273;28;20023;-63
2021/09/18 00:29:37;;;;;;;;;;;;;;;;;;5072889;28;20026;-64
2021/09/18 00:32:04;;;;;;;;;;;;;;;;;;5071635;28;19932;-63
2021/09/18 00:34:31;;;;;;;;;;;;;;;;;;5072008;28;20018;-65
2021/09/18 00:36:59;;;;;;;;;;;;;;;;;;5071957;28;19930;-62
2021/09/18 00:39:25;;;;;;;;;;;;;;;;;;5071518;28;20014;-65
2021/09/18 00:41:52;;;;;;;;;;;;;;;;;;5071846;28;19924;-63
2021/09/18 00:44:19;;;;;;;;;;;;;;;;;;5071350;28;19928;-65
2021/09/18 00:46:47;;;;;;;;;;;;;;;;;;5071429;28;19925;-64
2021/09/18 00:49:14;;;;;;;;;;;;;;;;;;5067902;28;19970;-66
2021/09/18 00:51:40;;;;;;;;;;;;;;;;;;5078285;28;19924;-62
2021/09/18 00:54:07;;;;;;;;;;;;;;;;;;5079077;28;20459;-63
2021/09/18 00:56:34;;;;;;;;;;;;;;;;;;5078640;28;19947;-65
2021/09/18 00:59:02;;;;;;;;;;;;;;;;;;5078005;28;20011;-63
2021/09/18 01:01:29;;;;;;;;;;;;;;;;;;5078632;28;20428;-63
2021/09/18 01:03:56;;;;;;;;;;;;;;;;;;5078755;28;19934;-63
2021/09/18 01:06:22;;;;;;;;;;;;;;;;;;5078157;28;20007;-63
2021/09/18 01:08:49;;;;;;;;;;;;;;;;;;5078497;28;19924;-63
2021/09/18 01:11:16;;;;;;;;;;;;;;;;;;5077743;28;19924;-64
2021/09/18 01:13:43;;;;;;;;;;;;;;;;;;5078096;28;19924;-63
2021/09/18 01:16:10;;;;;;;;;;;;;;;;;;5078884;28;20410;-64
2021/09/18 01:18:37;;;;;;;;;;;;;;;;;;5078149;28;19924;-64
2021/09/18 01:21:04;;;;;;;;;;;;;;;;;;5077632;28;19931;-66
2021/09/18 01:23:31;;;;;;;;;;;;;;;;;;5077722;28;20395;-65
2021/09/18 01:25:58;;;;;;;;;;;;;;;;;;5078037;28;20211;-64
2021/09/18 01:28:25;;;;;;;;;;;;;;;;;;5078460;28;19929;-65
2021/09/18 01:30:52;;;;;;;;;;;;;;;;;;5077719;28;19930;-64
2021/09/18 01:33:19;;;;;;;;;;;;;;;;;;5077780;28;20311;-64
2021/09/18 01:35:46;;;;;;;;;;;;;;;;;;5078010;28;19924;-64
2021/09/18 01:38:13;;;;;;;;;;;;;;;;;;5078260;28;19925;-64
2021/09/18 01:40:40;;;;;;;;;;;;;;;;;;5077630;28;19925;-64
2021/09/18 01:43:07;;;;;;;;;;;;;;;;;;5078533;28;19924;-66
2021/09/18 01:45:34;;;;;;;;;;;;;;;;;;5077817;28;20299;-64
2021/09/18 01:48:02;;;;;;;;;;;;;;;;;;5077827;28;19970;-65
2021/09/18 01:50:29;;;;;;;;;;;;;;;;;;5077236;28;19942;-65
2021/09/18 01:52:56;;;;;;;;;;;;;;;;;;5073489;28;19925;-65
2021/09/18 01:55:23;;;;;;;;;;;;;;;;;;5078024;28;20427;-65
2021/09/18 01:57:50;;;;;;;;;;;;;;;;;;5077995;28;19924;-65
2021/09/18 02:00:17;;;;;;;;;;;;;;;;;;5077329;28;19931;-64
2021/09/18 02:02:44;;;;;;;;;;;;;;;;;;5068328;28;19924;-64
2021/09/18 02:05:11;;;;;;;;;;;;;;;;;;5074105;28;19931;-64
2021/09/18 02:07:38;;;;;;;;;;;;;;;;;;5074948;28;20022;-65
2021/09/18 02:10:05;;;;;;;;;;;;;;;;;;5074461;28;19925;-65
2021/09/18 02:12:32;;;;;;;;;;;;;;;;;;5074175;28;19930;-66
2021/09/18 02:14:59;;;;;;;;;;;;;;;;;;5074439;28;20038;-64
2021/09/18 02:17:26;;;;;;;;;;;;;;;;;;5074172;28;19928;-65
2021/09/18 02:19:53;;;;;;;;;;;;;;;;;;5074494;28;20280;-63
2021/09/18 02:22:20;;;;;;;;;;;;;;;;;;5074204;28;19924;-64
2021/09/18 02:24:47;;;;;;;;;;;;;;;;;;5073901;28;19931;-64
2021/09/18 02:27:14;;;;;;;;;;;;;;;;;;5073905;28;19924;-66
2021/09/18 02:29:41;;;;;;;;;;;;;;;;;;5074061;28;20015;-64
2021/09/18 02:32:07;;;;;;;;;;;;;;;;;;5073846;28;19936;-63
2021/09/18 02:34:34;;;;;;;;;;;;;;;;;;5073160;28;19925;-65
2021/09/18 02:37:01;;;;;;;;;;;;;;;;;;5074569;28;19924;-64
2021/09/18 02:39:28;;;;;;;;;;;;;;;;;;5073807;28;19924;-63
2021/09/18 02:41:55;;;;;;;;;;;;;;;;;;5074237;28;20300;-64
2021/09/18 02:44:22;;;;;;;;;;;;;;;;;;5073436;28;19925;-63
2021/09/18 02:46:49;;;;;;;;;;;;;;;;;;5074240;28;19932;-64
2021/09/18 02:49:16;;;;;;;;;;;;;;;;;;5073792;28;19929;-65
2021/09/18 02:51:43;;;;;;;;;;;;;;;;;;5073915;28;20011;-65
2021/09/18 02:54:10;;;;;;;;;;;;;;;;;;5074075;28;19925;-64
2021/09/18 02:56:37;;;;;;;;;;;;;;;;;;5073593;28;20245;-63
2021/09/18 02:59:04;;;;;;;;;;;;;;;;;;5073454;28;19924;-63
2021/09/18 03:01:31;;;;;;;;;;;;;;;;;;5072963;28;20354;-63
2021/09/18 03:03:58;;;;;;;;;;;;;;;;;;5073092;28;19925;-65
2021/09/18 03:06:24;;;;;;;;;;;;;;;;;;5073580;28;19925;-63
2021/09/18 03:08:51;;;;;;;;;;;;;;;;;;5073415;28;19924;-66
2021/09/18 03:11:18;;;;;;;;;;;;;;;;;;5072945;28;20384;-65
2021/09/18 03:13:45;;;;;;;;;;;;;;;;;;5072887;28;19925;-65
2021/09/18 03:16:12;;;;;;;;;;;;;;;;;;5062873;28;19925;-63
2021/09/18 03:18:39;;;;;;;;;;;;;;;;;;5073095;28;19931;-63
2021/09/18 03:21:06;;;;;;;;;;;;;;;;;;5072724;28;20346;-63
2021/09/18 03:23:33;;;;;;;;;;;;;;;;;;5072511;28;19925;-63
2021/09/18 03:26:00;;;;;;;;;;;;;;;;;;5073603;28;19924;-65
2021/09/18 03:28:27;;;;;;;;;;;;;;;;;;5072812;28;19934;-63
2021/09/18 03:30:54;;;;;;;;;;;;;;;;;;5072592;28;20273;-62
2021/09/18 03:33:21;;;;;;;;;;;;;;;;;;5072596;28;20385;-66
2021/09/18 03:35:49;;;;;;;;;;;;;;;;;;5071985;28;19924;-63
2021/09/18 03:38:16;;;;;;;;;;;;;;;;;;5073660;28;20051;-64
2021/09/18 03:40:43;;;;;;;;;;;;;;;;;;5072291;28;19931;-64
2021/09/18 03:43:10;;;;;;;;;;;;;;;;;;5096415;22;19931;-70
2021/09/18 03:45:37;;;;;;;;;;;;;;;;;;5097822;28;19979;-71
2021/09/18 03:48:04;;;;;;;;;;;;;;;;;;5098263;28;19924;-71
2021/09/18 03:50:31;;;;;;;;;;;;;;;;;;5093222;28;19946;-71
2021/09/18 03:52:58;;;;;;;;;;;;;;;;;;5088778;28;19924;-70
2021/09/18 03:55:24;;;;;;;;;;;;;;;;;;5074456;28;20230;-70
2021/09/18 03:57:51;;;;;;;;;;;;;;;;;;5073909;28;19925;-71
2021/09/18 04:00:18;;;;;;;;;;;;;;;;;;5073931;28;19924;-71
2021/09/18 04:02:45;;;;;;;;;;;;;;;;;;5074722;28;20016;-70
2021/09/18 04:05:12;;;;;;;;;;;;;;;;;;5075193;28;19924;-70
2021/09/18 04:07:39;;;;;;;;;;;;;;;;;;5074142;28;20289;-72
2021/09/18 04:10:06;;;;;;;;;;;;;;;;;;5084224;28;20362;-70
2021/09/18 04:12:33;;;;;;;;;;;;;;;;;;5070340;28;20023;-70
2021/09/18 04:15:00;;;;;;;;;;;;;;;;;;5085660;28;19950;-69
2021/09/18 04:17:27;;;;;;;;;;;;;;;;;;5074350;28;19932;-70
2021/09/18 04:19:54;;;;;;;;;;;;;;;;;;5084974;28;19931;-71
2021/09/18 04:22:21;;;;;;;;;;;;;;;;;;5075095;28;19931;-69
2021/09/18 04:24:48;;;;;;;;;;;;;;;;;;5075530;28;19924;-71
2021/09/18 04:27:15;;;;;;;;;;;;;;;;;;5079692;28;20311;-70
2021/09/18 04:29:42;;;;;;;;;;;;;;;;;;5088887;28;19924;-70
2021/09/18 04:32:09;;;;;;;;;;;;;;;;;;5078625;28;20112;-71
2021/09/18 04:34:36;;;;;;;;;;;;;;;;;;5069141;28;19987;-72
2021/09/18 04:37:03;;;;;;;;;;;;;;;;;;5078485;28;19925;-71
2021/09/18 04:39:30;;;;;;;;;;;;;;;;;;5077790;28;19924;-71
2021/09/18 04:41:57;;;;;;;;;;;;;;;;;;5078477;28;19931;-71
2021/09/18 04:44:24;;;;;;;;;;;;;;;;;;5078930;28;19995;-71
2021/09/18 04:46:50;;;;;;;;;;;;;;;;;;5074706;28;19931;-71
2021/09/18 04:49:17;;;;;;;;;;;;;;;;;;5073335;28;19932;-72
2021/09/18 04:51:44;;;;;;;;;;;;;;;;;;5075852;28;19931;-72
2021/09/18 04:54:11;;;;;;;;;;;;;;;;;;5073464;28;19924;-70
2021/09/18 04:56:38;;;;;;;;;;;;;;;;;;5073586;28;19925;-70
2021/09/18 04:59:06;;;;;;;;;;;;;;;;;;5074100;28;19934;-71
2021/09/18 05:01:33;;;;;;;;;;;;;;;;;;5074659;28;20364;-70
2021/09/18 05:04:00;;;;;;;;;;;;;;;;;;5074339;28;19924;-71
2021/09/18 05:06:27;;;;;;;;;;;;;;;;;;5073763;28;19931;-70
2021/09/18 05:08:53;;;;;;;;;;;;;;;;;;5073316;28;20304;-70
2021/09/18 05:11:20;;;;;;;;;;;;;;;;;;5073317;28;19925;-70
2021/09/18 05:13:47;;;;;;;;;;;;;;;;;;5073832;28;20015;-71
2021/09/18 05:16:14;;;;;;;;;;;;;;;;;;5072925;28;19931;-71
2021/09/18 05:18:41;;;;;;;;;;;;;;;;;;5073123;28;19929;-71
2021/09/18 05:21:08;;;;;;;;;;;;;;;;;;5072543;28;20285;-70
2021/09/18 05:23:35;;;;;;;;;;;;;;;;;;5074383;28;19924;-72
2021/09/18 05:26:02;;;;;;;;;;;;;;;;;;5077372;28;19924;-71
2021/09/18 05:28:29;;;;;;;;;;;;;;;;;;5088139;28;20391;-69
2021/09/18 05:30:56;;;;;;;;;;;;;;;;;;5085697;28;20311;-69
2021/09/18 05:33:23;;;;;;;;;;;;;;;;;;5074315;28;19925;-69
2021/09/18 05:35:50;;;;;;;;;;;;;;;;;;5073252;28;19924;-70
2021/09/18 05:38:17;;;;;;;;;;;;;;;;;;5075962;28;19924;-70
2021/09/18 05:40:44;;;;;;;;;;;;;;;;;;5076911;28;19924;-71
2021/09/18 05:43:11;;;;;;;;;;;;;;;;;;5077662;28;20236;-70
2021/09/18 05:45:38;;;;;;;;;;;;;;;;;;5076231;28;19929;-70
2021/09/18 05:48:06;;;;;;;;;;;;;;;;;;5070183;28;20646;-70
2021/09/18 05:50:33;;;;;;;;;;;;;;;;;;5074080;28;19935;-71
2021/09/18 05:53:00;;;;;;;;;;;;;;;;;;5088275;28;19947;-71
2021/09/18 05:55:27;;;;;;;;;;;;;;;;;;5076877;28;20354;-70
2021/09/18 05:57:54;;;;;;;;;;;;;;;;;;5084345;28;19928;-70
2021/09/18 06:00:21;;;;;;;;;;;;;;;;;;5079039;28;19924;-71
2021/09/18 06:02:48;;;;;;;;;;;;;;;;;;5079711;28;19925;-70
2021/09/18 06:05:15;;;;;;;;;;;;;;;;;;5079750;28;20354;-70
2021/09/18 06:07:42;;;;;;;;;;;;;;;;;;5077668;28;19925;-69
2021/09/18 06:10:09;;;;;;;;;;;;;;;;;;5076957;28;20503;-71
2021/09/18 06:12:36;;;;;;;;;;;;;;;;;;5077911;28;19928;-69
2021/09/18 06:15:02;;;;;;;;;;;;;;;;;;5077124;28;20198;-69
2021/09/18 06:17:29;;;;;;;;;;;;;;;;;;5076820;28;19925;-70
2021/09/18 06:19:56;;;;;;;;;;;;;;;;;;5076035;28;19928;-70
2021/09/18 06:22:23;;;;;;;;;;;;;;;;;;5076169;28;19924;-71
2021/09/18 06:24:53;;;;;;;;;;;;;;;;;;5076471;28;19931;-71
2021/09/18 06:27:20;;;;;;;;;;;;;;;;;;5076115;28;19924;-70
2021/09/18 06:29:47;;;;;;;;;;;;;;;;;;5075751;28;20310;-72
2021/09/18 06:32:14;;;;;;;;;;;;;;;;;;5076291;28;19924;-70
2021/09/18 06:34:41;;;;;;;;;;;;;;;;;;5076057;28;19925;-71
2021/09/18 06:37:08;;;;;;;;;;;;;;;;;;5075694;28;19930;-71
2021/09/18 06:39:36;;;;;;;;;;;;;;;;;;5075256;28;20296;-70
2021/09/18 06:42:03;;;;;;;;;;;;;;;;;;5075667;28;19930;-70
2021/09/18 06:44:30;;;;;;;;;;;;;;;;;;5079586;28;20408;-70
2021/09/18 06:46:57;;;;;;;;;;;;;;;;;;5087177;28;19946;-71
2021/09/18 06:49:24;;;;;;;;;;;;;;;;;;5079592;28;19931;-71
2021/09/18 06:51:51;;;;;;;;;;;;;;;;;;5073288;28;20011;-70
2021/09/18 06:54:18;;;;;;;;;;;;;;;;;;5075383;28;19924;-72
2021/09/18 06:56:45;;;;;;;;;;;;;;;;;;5074587;28;19924;-71
2021/09/18 06:59:12;;;;;;;;;;;;;;;;;;5074358;28;20360;-70
2021/09/18 07:01:39;;;;;;;;;;;;;;;;;;5074664;28;19947;-69
2021/09/18 07:04:06;;;;;;;;;;;;;;;;;;5070847;28;20011;-70
2021/09/18 07:06:33;;;;;;;;;;;;;;;;;;5082782;28;19924;-71
2021/09/18 07:09:00;;;;;;;;;;;;;;;;;;5074578;28;20307;-69
2021/09/18 07:11:27;;;;;;;;;;;;;;;;;;5084627;28;19947;-71
2021/09/18 07:13:53;;;;;;;;;;;;;;;;;;5075163;28;19928;-70
2021/09/18 07:16:20;;;;;;;;;;;;;;;;;;5079731;28;19924;-72
2021/09/18 07:18:47;;;;;;;;;;;;;;;;;;5078615;28;19924;-70
2021/09/18 07:21:14;;;;;;;;;;;;;;;;;;5074037;28;19963;-69
2021/09/18 07:23:41;;;;;;;;;;;;;;;;;;5086208;28;19931;-70
2021/09/18 07:26:10;;;;;;;;;;;;;;;;;;5082968;28;19925;-69
2021/09/18 07:28:37;;;;;;;;;;;;;;;;;;5076608;28;19924;-71
2021/09/18 07:31:04;;;;;;;;;;;;;;;;;;5081372;28;19929;-71
2021/09/18 07:33:31;;;;;;;;;;;;;;;;;;5078689;28;19935;-71
2021/09/18 07:35:58;;;;;;;;;;;;;;;;;;5074639;28;19925;-70
2021/09/18 07:38:25;;;;;;;;;;;;;;;;;;5074416;28;19979;-70
2021/09/18 07:40:55;;;;;;;;;;;;;;;;;;5073245;28;19974;-71
2021/09/18 07:43:22;;;;;;;;;;;;;;;;;;5085046;28;19924;-71
2021/09/18 07:45:48;;;;;;;;;;;;;;;;;;5073774;28;19931;-70
2021/09/18 07:48:15;;;;;;;;;;;;;;;;;;5073971;28;19925;-71
2021/09/18 07:50:42;;;;;;;;;;;;;;;;;;5074011;28;20047;-68
2021/09/18 07:53:11;;;;;;;;;;;;;;;;;;5075510;28;20356;-70
2021/09/18 07:55:38;;;;;;;;;;;;;;;;;;5074928;28;20015;-71
2021/09/18 07:58:05;;;;;;;;;;;;;;;;;;5074029;28;19931;-70
2021/09/18 08:00:32;;;;;;;;;;;;;;;;;;5072675;28;20728;-70
2021/09/18 08:02:59;;;;;;;;;;;;;;;;;;5084773;28;19925;-69
2021/09/18 08:05:25;;;;;;;;;;;;;;;;;;5074654;28;19925;-68
2021/09/18 08:07:52;;;;;;;;;;;;;;;;;;5074485;28;19925;-72
2021/09/18 08:10:19;;;;;;;;;;;;;;;;;;5075694;28;19931;-70
2021/09/18 08:12:48;;;;;;;;;;;;;;;;;;5079426;28;19935;-72
2021/09/18 08:15:15;;;;;;;;;;;;;;;;;;5090251;28;19970;-71
2021/09/18 08:17:42;;;;;;;;;;;;;;;;;;5071210;28;19933;-68
2021/09/18 08:20:09;;;;;;;;;;;;;;;;;;5072259;28;19928;-72
2021/09/18 08:22:36;;;;;;;;;;;;;;;;;;5079933;28;19929;-71
2021/09/18 08:25:03;;;;;;;;;;;;;;;;;;5080714;28;20299;-70
2021/09/18 08:27:30;;;;;;;;;;;;;;;;;;5078260;28;19971;-71
2021/09/18 08:29:57;;;;;;;;;;;;;;;;;;5078281;28;19928;-70
2021/09/18 08:32:24;;;;;;;;;;;;;;;;;;5078840;28;19924;-70
2021/09/18 08:34:51;;;;;;;;;;;;;;;;;;5079120;28;19924;-70
2021/09/18 08:37:18;;;;;;;;;;;;;;;;;;5076843;28;19925;-69
2021/09/18 08:39:45;;;;;;;;;;;;;;;;;;5077337;28;20069;-69
2021/09/18 08:42:13;;;;;;;;;;;;;;;;;;5078443;28;20407;-69
2021/09/18 08:44:40;;;;;;;;;;;;;;;;;;5077741;28;19978;-69
2021/09/18 08:47:07;;;;;;;;;;;;;;;;;;5073149;28;20323;-70
2021/09/18 08:49:34;;;;;;;;;;;;;;;;;;5072238;28;19931;-69
2021/09/18 08:52:01;;;;;;;;;;;;;;;;;;5071122;28;20308;-69
2021/09/18 08:54:27;;;;;;;;;;;;;;;;;;5072538;28;20391;-70
2021/09/18 08:56:54;;;;;;;;;;;;;;;;;;5072199;28;19932;-69
2021/09/18 08:59:21;;;;;;;;;;;;;;;;;;5075446;28;19929;-70
2021/09/18 09:01:48;;;;;;;;;;;;;;;;;;5079525;28;19924;-70
2021/09/18 09:04:15;;;;;;;;;;;;;;;;;;5075454;28;19932;-70
2021/09/18 09:06:42;;;;;;;;;;;;;;;;;;5079005;28;20006;-70
2021/09/18 09:09:09;;;;;;;;;;;;;;;;;;5071904;28;20274;-70
2021/09/18 09:11:36;;;;;;;;;;;;;;;;;;5074863;28;20382;-70
2021/09/18 09:14:03;;;;;;;;;;;;;;;;;;5075898;28;19928;-70
2021/09/18 09:16:30;;;;;;;;;;;;;;;;;;5075699;28;19971;-70
2021/09/18 09:18:57;;;;;;;;;;;;;;;;;;5076024;28;19935;-70
2021/09/18 09:21:24;;;;;;;;;;;;;;;;;;5076269;28;19924;-70
2021/09/18 09:23:51;;;;;;;;;;;;;;;;;;5076199;28;19975;-70
2021/09/18 09:26:18;;;;;;;;;;;;;;;;;;5075868;28;20368;-70
2021/09/18 09:28:47;;;;;;;;;;;;;;;;;;5076071;28;19931;-70
2021/09/18 09:31:14;;;;;;;;;;;;;;;;;;5075637;28;19925;-70
2021/09/18 09:33:41;;;;;;;;;;;;;;;;;;5073512;28;20303;-69
2021/09/18 09:36:08;;;;;;;;;;;;;;;;;;5075599;28;19931;-70
2021/09/18 09:38:35;;;;;;;;;;;;;;;;;;5075610;28;19930;-70
2021/09/18 09:41:04;;;;;;;;;;;;;;;;;;5075377;28;19924;-70
2021/09/18 09:43:31;;;;;;;;;;;;;;;;;;5101328;22;20303;-65
2021/09/18 09:45:58;;;;;;;;;;;;;;;;;;5094374;28;20395;-63
2021/09/18 09:48:25;;;;;;;;;;;;;;;;;;5094545;28;19924;-65
2021/09/18 09:50:53;;;;;;;;;;;;;;;;;;5094207;28;20018;-65
2021/09/18 09:53:20;;;;;;;;;;;;;;;;;;5086496;28;19978;-65
2021/09/18 09:55:47;;;;;;;;;;;;;;;;;;5074986;28;19997;-65
2021/09/18 09:58:13;;;;;;;;;;;;;;;;;;5074739;28;19925;-64
2021/09/18 10:00:40;;;;;;;;;;;;;;;;;;5074735;28;19946;-65
2021/09/18 10:03:07;;;;;;;;;;;;;;;;;;5075638;28;19931;-66
2021/09/18 10:05:34;;;;;;;;;;;;;;;;;;5074926;28;19946;-64
2021/09/18 10:08:01;;;;;;;;;;;;;;;;;;5075026;28;19931;-65
2021/09/18 10:10:28;;;;;;;;;;;;;;;;;;5070660;28;20031;-65
2021/09/18 10:12:55;;;;;;;;;;;;;;;;;;5075494;28;20011;-64
2021/09/18 10:15:22;;;;;;;;;;;;;;;;;;5075144;28;19924;-65
2021/09/18 10:17:49;;;;;;;;;;;;;;;;;;5075152;28;19924;-64
2021/09/18 10:23:13;;;;;;;;;;;;;;;;;;5074630;28;20315;-63
2021/09/18 10:23:14;;;;;;;;;;;;;;;;;;5073610;28;20301;-64
2021/09/18 10:25:42;;;;;;;;;;;;;;;;;;5075063;28;20273;-63
2021/09/18 10:28:09;;;;;;;;;;;;;;;;;;5074185;28;20231;-64
2021/09/18 10:30:36;;;;;;;;;;;;;;;;;;5075275;28;19951;-65
2021/09/18 10:33:03;;;;;;;;;;;;;;;;;;5074471;28;19925;-64
2021/09/18 10:35:30;;;;;;;;;;;;;;;;;;5074652;28;20284;-66
2021/09/18 10:37:57;;;;;;;;;;;;;;;;;;5074333;28;19929;-64
2021/09/18 10:40:24;;;;;;;;;;;;;;;;;;5074889;28;20015;-62
2021/09/18 10:42:51;;;;;;;;;;;;;;;;;;5074370;28;19931;-64
2021/09/18 10:45:18;;;;;;;;;;;;;;;;;;5074517;28;20015;-64
2021/09/18 10:47:47;;;;;;;;;;;;;;;;;;5073930;28;19931;-64
2021/09/18 10:50:14;;;;;;;;;;;;;;;;;;5074598;28;19924;-65
2021/09/18 10:52:41;;;;;;;;;;;;;;;;;;5074206;28;20546;-65
2021/09/18 10:55:08;;;;;;;;;;;;;;;;;;5074054;28;19924;-64
2021/09/18 10:57:35;;;;;;;;;;;;;;;;;;5074149;28;19936;-66
2021/09/18 11:00:02;;;;;;;;;;;;;;;;;;5074687;28;19928;-63
2021/09/18 11:02:29;;;;;;;;;;;;;;;;;;5073883;28;19924;-65
2021/09/18 11:04:56;;;;;;;;;;;;;;;;;;5073699;28;19924;-64
2021/09/18 11:07:23;;;;;;;;;;;;;;;;;;5073842;28;19929;-65
2021/09/18 11:09:50;;;;;;;;;;;;;;;;;;5074503;28;19925;-64
2021/09/18 11:12:17;;;;;;;;;;;;;;;;;;5073850;28;20323;-63
2021/09/18 11:14:44;;;;;;;;;;;;;;;;;;5073671;28;20285;-64
2021/09/18 11:17:11;;;;;;;;;;;;;;;;;;5073810;28;19925;-63
2021/09/18 11:19:38;;;;;;;;;;;;;;;;;;5074212;28;19950;-64
2021/09/18 11:22:05;;;;;;;;;;;;;;;;;;5073654;28;19928;-62
2021/09/18 11:24:32;;;;;;;;;;;;;;;;;;5073440;28;20053;-65
2021/09/18 11:26:59;;;;;;;;;;;;;;;;;;5073443;28;19929;-63
2021/09/18 11:29:27;;;;;;;;;;;;;;;;;;5073979;28;20304;-66
2021/09/18 11:31:54;;;;;;;;;;;;;;;;;;5073560;28;19948;-65
2021/09/18 11:34:21;;;;;;;;;;;;;;;;;;5073285;28;20302;-64
2021/09/18 11:36:48;;;;;;;;;;;;;;;;;;5073480;28;19935;-64
2021/09/18 11:39:15;;;;;;;;;;;;;;;;;;5074140;28;19963;-63
2021/09/18 11:41:42;;;;;;;;;;;;;;;;;;5073267;28;20035;-65
2021/09/18 11:44:10;;;;;;;;;;;;;;;;;;5073313;28;20387;-63
2021/09/18 11:46:37;;;;;;;;;;;;;;;;;;5072864;28;19924;-64
2021/09/18 11:49:04;;;;;;;;;;;;;;;;;;5074236;28;20291;-63
2021/09/18 11:51:31;;;;;;;;;;;;;;;;;;5072746;28;19939;-63
2021/09/18 11:53:58;;;;;;;;;;;;;;;;;;5073205;28;20014;-64
2021/09/18 11:56:25;;;;;;;;;;;;;;;;;;5072961;28;20296;-65
2021/09/18 11:58:52;;;;;;;;;;;;;;;;;;5073609;28;20020;-65
2021/09/18 12:01:19;;;;;;;;;;;;;;;;;;5072580;28;20272;-64
2021/09/18 12:03:46;;;;;;;;;;;;;;;;;;5069897;28;19925;-63
2021/09/18 12:06:13;;;;;;;;;;;;;;;;;;5072680;28;19971;-64
2021/09/18 12:08:40;;;;;;;;;;;;;;;;;;5073384;28;19924;-64
2021/09/18 12:11:07;;;;;;;;;;;;;;;;;;5072256;28;19931;-65
2021/09/18 12:13:34;;;;;;;;;;;;;;;;;;5072477;28;19978;-65
2021/09/18 12:16:03;;;;;;;;;;;;;;;;;;5072570;28;20367;-65
2021/09/18 12:18:30;;;;;;;;;;;;;;;;;;5073592;28;19928;-63
2021/09/18 12:20:57;;;;;;;;;;;;;;;;;;5072473;28;20311;-64
2021/09/18 12:23:24;;;;;;;;;;;;;;;;;;5072507;28;19925;-65
2021/09/18 12:25:51;;;;;;;;;;;;;;;;;;5072188;28;19925;-63
2021/09/18 12:28:18;;;;;;;;;;;;;;;;;;5073229;28;20014;-65
2021/09/18 12:30:44;;;;;;;;;;;;;;;;;;5072128;28;19931;-63
2021/09/18 12:33:11;;;;;;;;;;;;;;;;;;5072289;28;20015;-67
2021/09/18 12:35:38;;;;;;;;;;;;;;;;;;5072212;28;20389;-65
2021/09/18 12:38:06;;;;;;;;;;;;;;;;;;5072809;28;19925;-63
2021/09/18 12:40:33;;;;;;;;;;;;;;;;;;5071569;28;20376;-66
2021/09/18 12:43:00;;;;;;;;;;;;;;;;;;5071788;28;19935;-64
2021/09/18 12:45:27;;;;;;;;;;;;;;;;;;5071529;28;19931;-65
2021/09/18 12:47:54;;;;;;;;;;;;;;;;;;5072486;28;19924;-65
2021/09/18 12:50:21;;;;;;;;;;;;;;;;;;5071997;28;19925;-64
2021/09/18 12:52:48;;;;;;;;;;;;;;;;;;5072041;28;19928;-64
2021/09/18 12:55:15;;;;;;;;;;;;;;;;;;5071746;28;20403;-64
2021/09/18 12:57:42;;;;;;;;;;;;;;;;;;5072556;28;20281;-65
2021/09/18 13:00:09;;;;;;;;;;;;;;;;;;5071791;28;19982;-64
2021/09/18 13:02:36;;;;;;;;;;;;;;;;;;5078442;28;20384;-65
2021/09/18 13:05:04;;;;;;;;;;;;;;;;;;5075656;28;19925;-66
2021/09/18 13:07:31;;;;;;;;;;;;;;;;;;5071901;28;19937;-66
2021/09/18 13:09:58;;;;;;;;;;;;;;;;;;5072100;28;20311;-64
2021/09/18 13:12:24;;;;;;;;;;;;;;;;;;5072041;28;19924;-64
2021/09/18 13:14:51;;;;;;;;;;;;;;;;;;5071882;28;19932;-66
2021/09/18 13:17:18;;;;;;;;;;;;;;;;;;5071012;28;19930;-64
2021/09/18 13:19:45;;;;;;;;;;;;;;;;;;5072224;28;19935;-65
2021/09/18 13:22:13;;;;;;;;;;;;;;;;;;5071723;28;19924;-66
2021/09/18 13:24:40;;;;;;;;;;;;;;;;;;5072502;28;19933;-64
2021/09/18 13:27:07;;;;;;;;;;;;;;;;;;5071728;28;20308;-63
2021/09/18 13:29:34;;;;;;;;;;;;;;;;;;5072603;28;19924;-67
2021/09/18 13:32:01;;;;;;;;;;;;;;;;;;5071596;28;20396;-65
2021/09/18 13:34:28;;;;;;;;;;;;;;;;;;5071553;28;20023;-64
2021/09/18 13:36:55;;;;;;;;;;;;;;;;;;5071879;28;20027;-64
2021/09/18 13:39:22;;;;;;;;;;;;;;;;;;5072454;28;19934;-67
2021/09/18 13:41:49;;;;;;;;;;;;;;;;;;5071927;28;19970;-67
2021/09/18 13:44:16;;;;;;;;;;;;;;;;;;5071753;28;20303;-66
2021/09/18 13:46:43;;;;;;;;;;;;;;;;;;5071720;28;19924;-65
2021/09/18 13:49:10;;;;;;;;;;;;;;;;;;5072223;28;19932;-63
2021/09/18 13:51:37;;;;;;;;;;;;;;;;;;5071227;28;19924;-66
2021/09/18 13:54:04;;;;;;;;;;;;;;;;;;5071522;28;19978;-64
2021/09/18 13:56:31;;;;;;;;;;;;;;;;;;5071611;28;19928;-64
2021/09/18 13:58:58;;;;;;;;;;;;;;;;;;5074827;28;19925;-64
2021/09/18 14:01:25;;;;;;;;;;;;;;;;;;5074714;28;19924;-65
2021/09/18 14:03:53;;;;;;;;;;;;;;;;;;5075101;28;19925;-65
2021/09/18 14:06:20;;;;;;;;;;;;;;;;;;5074907;28;20293;-66
2021/09/18 14:08:47;;;;;;;;;;;;;;;;;;5076092;28;19924;-64
2021/09/18 14:11:14;;;;;;;;;;;;;;;;;;5074875;28;19932;-64
2021/09/18 14:13:41;;;;;;;;;;;;;;;;;;5075027;28;19924;-64
2021/09/18 14:16:08;;;;;;;;;;;;;;;;;;5075065;28;20281;-64
2021/09/18 14:18:35;;;;;;;;;;;;;;;;;;5075440;28;19930;-65
2021/09/18 14:21:02;;;;;;;;;;;;;;;;;;5074568;28;19931;-64
2021/09/18 14:23:29;;;;;;;;;;;;;;;;;;5074511;28;19957;-64
2021/09/18 14:25:56;;;;;;;;;;;;;;;;;;5074501;28;20395;-63
2021/09/18 14:28:24;;;;;;;;;;;;;;;;;;5075480;28;19924;-66
2021/09/18 14:30:51;;;;;;;;;;;;;;;;;;5074313;28;20046;-64
2021/09/18 14:33:18;;;;;;;;;;;;;;;;;;5074134;28;19924;-63
2021/09/18 14:35:46;;;;;;;;;;;;;;;;;;5074644;28;19929;-65
2021/09/18 14:38:12;;;;;;;;;;;;;;;;;;5075685;28;20288;-64
2021/09/18 14:40:39;;;;;;;;;;;;;;;;;;5073998;28;19931;-68
2021/09/18 14:43:06;;;;;;;;;;;;;;;;;;5074334;28;19956;-63
2021/09/18 14:45:33;;;;;;;;;;;;;;;;;;5073911;28;19936;-66
2021/09/18 14:48:00;;;;;;;;;;;;;;;;;;5075138;28;19929;-64
2021/09/18 14:50:27;;;;;;;;;;;;;;;;;;5073965;28;19924;-64
2021/09/18 14:52:54;;;;;;;;;;;;;;;;;;5074208;28;19925;-65
2021/09/18 14:55:21;;;;;;;;;;;;;;;;;;5073969;28;19931;-62
2021/09/18 14:57:48;;;;;;;;;;;;;;;;;;5074875;28;19929;-65
2021/09/18 15:00:15;;;;;;;;;;;;;;;;;;5073598;28;20011;-65
2021/09/18 15:02:42;;;;;;;;;;;;;;;;;;5074173;28;20015;-66
2021/09/18 15:05:09;;;;;;;;;;;;;;;;;;5073903;28;19938;-64
2021/09/18 15:07:36;;;;;;;;;;;;;;;;;;5074635;28;19975;-67
2021/09/18 15:10:03;;;;;;;;;;;;;;;;;;5073904;28;19925;-64
2021/09/18 15:12:30;;;;;;;;;;;;;;;;;;5073962;28;20157;-64
2021/09/18 15:14:57;;;;;;;;;;;;;;;;;;5073596;28;19926;-65
2021/09/18 15:17:24;;;;;;;;;;;;;;;;;;5074519;28;19924;-66
2021/09/18 15:19:51;;;;;;;;;;;;;;;;;;5073201;28;19925;-65
2021/09/18 15:22:18;;;;;;;;;;;;;;;;;;5073959;28;20288;-65
2021/09/18 15:24:45;;;;;;;;;;;;;;;;;;5073428;28;19931;-65
2021/09/18 15:27:11;;;;;;;;;;;;;;;;;;5074000;28;19934;-67
2021/09/18 15:29:38;;;;;;;;;;;;;;;;;;5073251;28;19925;-67
2021/09/18 15:32:05;;;;;;;;;;;;;;;;;;5073687;28;19925;-64
2021/09/18 15:34:32;;;;;;;;;;;;;;;;;;5073408;28;19925;-65
2021/09/18 15:36:59;;;;;;;;;;;;;;;;;;5073660;28;19925;-64
2021/09/18 15:39:26;;;;;;;;;;;;;;;;;;5073592;28;20372;-65
2021/09/18 15:44:31;;;;;;;;;;;;;;;;;;5071356;28;19931;-67
2021/09/18 15:46:58;;;;;;;;;;;;;;;;;;5072798;28;19955;-68
2021/09/18 15:49:24;;;;;;;;;;;;;;;;;;5061201;28;20426;-67
2021/09/18 15:51:51;;;;;;;;;;;;;;;;;;5064806;28;19932;-69
2021/09/18 15:54:18;;;;;;;;;;;;;;;;;;5059604;28;19924;-67
2021/09/18 15:56:45;;;;;;;;;;;;;;;;;;5072171;28;20027;-70
2021/09/18 15:59:12;;;;;;;;;;;;;;;;;;5062240;28;19932;-71
2021/09/18 16:01:39;;;;;;;;;;;;;;;;;;5064922;28;19935;-67
2021/09/18 16:04:06;;;;;;;;;;;;;;;;;;5067841;28;19931;-69
2021/09/18 16:06:33;;;;;;;;;;;;;;;;;;5071935;28;19924;-67
2021/09/18 16:09:00;;;;;;;;;;;;;;;;;;5071944;28;20379;-71
2021/09/18 16:11:27;;;;;;;;;;;;;;;;;;5065496;28;19924;-68
2021/09/18 16:13:54;;;;;;;;;;;;;;;;;;5069114;28;20003;-69
2021/09/18 16:16:21;;;;;;;;;;;;;;;;;;5072275;28;19935;-67
2021/09/18 16:18:48;;;;;;;;;;;;;;;;;;5072373;28;19926;-70
2021/09/18 16:21:15;;;;;;;;;;;;;;;;;;5071228;28;20095;-68
2021/09/18 16:23:42;;;;;;;;;;;;;;;;;;5061479;28;19924;-67
2021/09/18 16:26:09;;;;;;;;;;;;;;;;;;5071996;28;19955;-68
2021/09/18 16:28:36;;;;;;;;;;;;;;;;;;5059810;28;19935;-67
2021/09/18 16:31:03;;;;;;;;;;;;;;;;;;5057621;28;19947;-68
2021/09/18 16:33:30;;;;;;;;;;;;;;;;;;5068309;28;19925;-68
2021/09/18 16:35:57;;;;;;;;;;;;;;;;;;5067884;28;19966;-68
2021/09/18 16:38:24;;;;;;;;;;;;;;;;;;5071000;28;20398;-67
2021/09/18 16:40:51;;;;;;;;;;;;;;;;;;5065664;28;19948;-68
2021/09/18 16:43:18;;;;;;;;;;;;;;;;;;5067457;28;19925;-68
2021/09/18 16:45:45;;;;;;;;;;;;;;;;;;5071976;28;20392;-68